Time;durP1;ratioP1;P1;durP2;ratioP2;P2;SDS_P1;SDS_P2;PMS_P1;PMS_P2;Temp;Humidity;BMP_temperature;BMP_pressure;BME280_temperature;BME280_humidity;BME280_pressure;Samples;Min_cycle;Max_cycle;Signal;HPM_P1;HPM_P2
2022/10/31 00:01:59;;;;;;;3.57;3.07;;;13.70;97.30;;;;;;4989869;28;20205;-84
2022/10/31 00:04:25;;;;;;;5.93;2.53;;;13.70;97.30;;;;;;4978927;28;20182;-83
2022/10/31 00:06:50;;;;;;;1.53;1.50;;;13.70;97.30;;;;;;4977703;28;20233;-84
2022/10/31 00:09:16;;;;;;;4.13;2.70;;;13.70;97.30;;;;;;4996566;28;20233;-84
2022/10/31 00:11:41;;;;;;;3.07;2.93;;;13.60;97.30;;;;;;4995970;28;20528;-84
2022/10/31 00:14:07;;;;;;;3.90;2.23;;;13.50;97.30;;;;;;4977839;28;20668;-84
2022/10/31 00:16:32;;;;;;;13.37;4.93;;;13.40;97.30;;;;;;4996442;28;20227;-84
2022/10/31 00:19:01;;;;;;;22.00;7.13;;;13.30;97.30;;;;;;4978220;28;20176;-84
2022/10/31 00:21:27;;;;;;;3.03;2.83;;;13.20;97.30;;;;;;4996291;28;20308;-85
2022/10/31 00:23:55;;;;;;;5.00;3.23;;;13.10;97.30;;;;;;4978485;28;20869;-85
2022/10/31 00:26:21;;;;;;;3.90;2.70;;;13.10;97.30;;;;;;4977844;28;20586;-84
2022/10/31 00:28:46;;;;;;;2.60;2.40;;;13.00;97.30;;;;;;4978689;28;20500;-85
2022/10/31 00:31:13;;;;;;;2.43;2.30;;;12.90;97.30;;;;;;4977969;28;20221;-84
2022/10/31 00:33:40;;;;;;;8.10;4.83;;;12.90;97.30;;;;;;4978547;28;20169;-84
2022/10/31 00:36:07;;;;;;;3.50;2.20;;;12.80;97.30;;;;;;4978126;28;20475;-84
2022/10/31 00:38:33;;;;;;;8.70;4.20;;;12.70;97.30;;;;;;4977783;28;20428;-84
2022/10/31 00:40:58;;;;;;;4.77;3.70;;;12.70;97.30;;;;;;4978866;28;20414;-84
2022/10/31 00:43:24;;;;;;;4.70;2.27;;;12.70;97.30;;;;;;4978002;28;20178;-85
2022/10/31 00:45:50;;;;;;;8.50;4.87;;;12.60;97.30;;;;;;4977648;28;20726;-84
2022/10/31 00:48:16;;;;;;;5.33;2.37;;;12.50;97.30;;;;;;4996310;28;20174;-84
2022/10/31 00:50:42;;;;;;;2.47;2.13;;;12.50;97.30;;;;;;4977340;28;20417;-84
2022/10/31 00:53:07;;;;;;;6.17;3.60;;;12.40;97.30;;;;;;4978586;28;20181;-83
2022/10/31 00:55:33;;;;;;;3.10;2.83;;;12.30;97.30;;;;;;4994682;28;20237;-83
2022/10/31 00:57:59;;;;;;;3.43;2.30;;;12.20;97.30;;;;;;4978052;28;20200;-84
2022/10/31 01:00:25;;;;;;;4.57;3.40;;;12.10;97.30;;;;;;4995789;28;20174;-84
2022/10/31 01:02:51;;;;;;;7.27;3.03;;;12.00;97.30;;;;;;4977650;28;20174;-85
2022/10/31 01:05:16;;;;;;;3.13;2.93;;;12.00;97.30;;;;;;5022634;22;20443;-89
2022/10/31 01:07:42;;;;;;;3.43;2.23;;;12.00;97.30;;;;;;5019327;28;20189;-88
2022/10/31 01:10:09;;;;;;;2.93;2.73;;;11.90;97.30;;;;;;5022602;28;20427;-89
2022/10/31 01:12:42;;;;;;;6.50;3.60;;;11.90;97.30;;;;;;5027196;28;20267;-87
2022/10/31 01:15:11;;;;;;;3.63;2.27;;;11.80;97.30;;;;;;5025937;28;20455;-88
2022/10/31 01:17:37;;;;;;;4.80;2.77;;;11.70;97.30;;;;;;5037006;28;20411;-86
2022/10/31 01:20:03;;;;;;;4.23;3.03;;;11.60;97.30;;;;;;5017592;28;20426;-88
2022/10/31 01:22:29;;;;;;;2.53;2.33;;;11.50;97.30;;;;;;5018116;28;20268;-87
2022/10/31 01:24:54;;;;;;;3.53;2.80;;;11.50;97.30;;;;;;5034706;28;20494;-88
2022/10/31 01:27:20;;;;;;;3.67;3.10;;;11.50;97.30;;;;;;5016693;28;20675;-88
2022/10/31 01:29:45;;;;;;;3.40;2.87;;;11.40;97.30;;;;;;5017081;28;20181;-89
2022/10/31 01:32:11;;;;;;;15.17;3.50;;;11.40;97.30;;;;;;5017026;28;20185;-88
2022/10/31 01:34:37;;;;;;;7.83;2.57;;;11.40;97.30;;;;;;5016279;28;20208;-88
2022/10/31 01:37:02;;;;;;;10.33;4.40;;;11.40;97.30;;;;;;5016785;28;20211;-88
2022/10/31 01:39:28;;;;;;;2.73;2.03;;;11.30;97.30;;;;;;5017795;28;20558;-88
2022/10/31 01:41:57;;;;;;;5.07;3.30;;;11.30;97.30;;;;;;5016244;28;20169;-88
2022/10/31 01:44:28;;;;;;;1.70;1.60;;;11.30;97.30;;;;;;5003327;28;20185;-88
2022/10/31 01:46:59;;;;;;;5.40;2.37;;;11.20;97.30;;;;;;5015364;28;20436;-88
2022/10/31 01:49:47;;;;;;;8.77;2.90;;;11.10;97.30;;;;;;4997245;28;20415;-88
2022/10/31 01:52:20;;;;;;;3.40;2.80;;;11.10;97.30;;;;;;4995493;28;20459;-88
2022/10/31 01:55:16;;;;;;;32.37;5.43;;;11.00;97.30;;;;;;4996588;28;20448;-88
2022/10/31 01:57:46;;;;;;;2.40;1.90;;;11.00;97.30;;;;;;5014628;28;20404;-89
2022/10/31 02:00:12;;;;;;;2.90;2.70;;;11.00;97.30;;;;;;4995966;28;20419;-89
2022/10/31 02:02:38;;;;;;;3.00;2.30;;;11.00;97.30;;;;;;4996436;28;20416;-88
2022/10/31 02:05:08;;;;;;;4.90;3.57;;;11.00;97.30;;;;;;4996330;28;20515;-88
2022/10/31 02:07:47;;;;;;;3.97;3.07;;;11.00;97.30;;;;;;4996674;28;20417;-89
2022/10/31 02:10:13;;;;;;;3.43;3.00;;;10.90;97.30;;;;;;5017606;28;20422;-89
2022/10/31 02:12:40;;;;;;;2.90;2.70;;;10.90;97.30;;;;;;5036436;28;20400;-89
2022/10/31 02:15:07;;;;;;;7.77;2.30;;;10.90;97.30;;;;;;5018934;28;20260;-93
2022/10/31 02:17:36;;;;;;;5.73;2.03;;;10.90;97.30;;;;;;5031105;28;20498;-89
2022/10/31 02:20:14;;;;;;;2.80;2.33;;;10.80;97.30;;;;;;5039494;28;20430;-92
2022/10/31 02:23:11;;;;;;;5.20;3.70;;;10.80;97.30;;;;;;5040350;28;20414;-91
2022/10/31 02:26:07;;;;;;;3.10;3.00;;;10.70;97.30;;;;;;5055422;28;20443;-90
2022/10/31 02:29:11;;;;;;;2.70;2.43;;;10.70;97.30;;;;;;5017484;28;20423;-86
2022/10/31 02:31:50;;;;;;;12.13;5.10;;;10.60;97.30;;;;;;5015125;28;20447;-85
2022/10/31 02:34:22;;;;;;;3.03;2.80;;;10.60;97.30;;;;;;5015342;28;20482;-87
2022/10/31 02:36:57;;;;;;;8.43;3.30;;;10.60;97.30;;;;;;5014510;28;20431;-88
2022/10/31 02:39:36;;;;;;;9.73;3.20;;;10.60;97.30;;;;;;5009339;28;20914;-88
2022/10/31 02:42:16;;;;;;;9.83;6.40;;;10.50;97.30;;;;;;4994386;28;20919;-88
2022/10/31 02:44:48;;;;;;;9.43;5.83;;;10.50;97.30;;;;;;4995649;28;20408;-87
2022/10/31 02:47:17;;;;;;;6.53;4.10;;;10.40;97.30;;;;;;5012100;28;20442;-88
2022/10/31 02:49:54;;;;;;;15.30;5.53;;;10.40;97.30;;;;;;4994428;28;20428;-88
2022/10/31 02:52:25;;;;;;;12.37;7.23;;;10.30;97.30;;;;;;5012582;28;20487;-88
2022/10/31 02:54:51;;;;;;;11.50;5.23;;;10.30;97.30;;;;;;5012489;28;20452;-88
2022/10/31 02:57:24;;;;;;;15.80;7.13;;;10.30;97.30;;;;;;5012166;28;20431;-88
2022/10/31 02:59:56;;;;;;;5.10;3.03;;;10.30;97.30;;;;;;4994328;28;20412;-87
2022/10/31 03:02:41;;;;;;;12.10;3.43;;;10.30;97.30;;;;;;4994910;28;20451;-88
2022/10/31 03:05:39;;;;;;;15.83;6.30;;;10.30;97.30;;;;;;4984050;28;20436;-87
2022/10/31 03:08:28;;;;;;;7.07;3.60;;;10.30;97.30;;;;;;4973550;28;20859;-88
2022/10/31 03:11:03;;;;;;;4.50;2.03;;;10.20;97.30;;;;;;4994730;28;21005;-87
2022/10/31 03:13:43;;;;;;;5.83;3.30;;;10.20;97.30;;;;;;4994833;28;20416;-88
2022/10/31 03:16:13;;;;;;;6.97;3.17;;;10.20;97.30;;;;;;5001252;28;20462;-88
2022/10/31 03:18:43;;;;;;;3.77;2.33;;;10.10;97.30;;;;;;5031764;28;20411;-88
2022/10/31 03:21:18;;;;;;;6.43;3.67;;;10.10;97.30;;;;;;5013962;28;20419;-88
2022/10/31 03:23:46;;;;;;;5.00;2.67;;;10.10;97.30;;;;;;5013794;28;20530;-89
2022/10/31 03:26:13;;;;;;;4.97;2.80;;;10.00;97.30;;;;;;5013987;28;20439;-87
2022/10/31 03:28:53;;;;;;;3.97;2.97;;;10.00;97.30;;;;;;5013423;28;20458;-88
2022/10/31 03:31:23;;;;;;;17.23;4.43;;;10.00;97.30;;;;;;5017184;28;20477;-88
2022/10/31 03:33:50;;;;;;;2.33;2.10;;;10.00;97.30;;;;;;5017850;28;20415;-89
2022/10/31 03:36:17;;;;;;;4.10;3.23;;;9.90;97.30;;;;;;5016995;28;20467;-87
2022/10/31 03:38:46;;;;;;;3.10;2.83;;;9.90;97.30;;;;;;5018277;28;20411;-88
2022/10/31 03:41:16;;;;;;;5.20;4.00;;;9.90;97.30;;;;;;5017445;28;20419;-87
2022/10/31 03:43:54;;;;;;;3.00;2.13;;;9.80;97.30;;;;;;5017461;28;20421;-87
2022/10/31 03:46:19;;;;;;;6.23;2.40;;;9.80;97.30;;;;;;5017878;28;20504;-88
2022/10/31 03:48:45;;;;;;;7.80;3.20;;;9.70;97.30;;;;;;5016977;28;20415;-87
2022/10/31 03:51:22;;;;;;;4.00;2.53;;;9.70;97.30;;;;;;5017537;28;20188;-88
2022/10/31 03:54:04;;;;;;;3.00;2.27;;;9.70;97.30;;;;;;5017707;28;20549;-87
2022/10/31 03:57:01;;;;;;;1.50;1.40;;;9.60;97.30;;;;;;5034375;28;20467;-87
2022/10/31 03:59:34;;;;;;;3.23;2.53;;;9.60;97.30;;;;;;5004045;28;20469;-88
2022/10/31 04:02:06;;;;;;;2.60;2.40;;;9.60;97.30;;;;;;5017624;28;20418;-87
2022/10/31 04:04:32;;;;;;;2.60;2.17;;;9.60;97.30;;;;;;5016154;28;20484;-87
2022/10/31 04:07:01;;;;;;;3.30;2.30;;;9.50;97.30;;;;;;5034926;28;20554;-88
2022/10/31 04:09:29;;;;;;;2.83;2.63;;;9.50;97.30;;;;;;5016916;28;20980;-87
2022/10/31 04:11:58;;;;;;;4.37;2.50;;;9.50;97.30;;;;;;5009994;28;20450;-87
2022/10/31 04:14:26;;;;;;;4.00;1.90;;;9.50;97.30;;;;;;5014918;28;20459;-87
2022/10/31 04:16:51;;;;;;;7.03;2.17;;;9.50;97.30;;;;;;5000946;28;20446;-87
2022/10/31 04:19:17;;;;;;;2.70;2.50;;;9.40;97.30;;;;;;5006955;28;20411;-88
2022/10/31 04:21:45;;;;;;;3.17;2.17;;;9.40;97.30;;;;;;5029920;28;20169;-88
2022/10/31 04:24:11;;;;;;;11.17;2.77;;;9.40;97.30;;;;;;5002502;28;20602;-88
2022/10/31 04:26:37;;;;;;;4.20;2.43;;;9.40;97.30;;;;;;5012133;28;20472;-88
2022/10/31 04:29:02;;;;;;;3.63;2.43;;;9.40;97.30;;;;;;5005371;28;20169;-88
2022/10/31 04:31:28;;;;;;;3.27;2.40;;;9.30;97.30;;;;;;5013137;28;20172;-88
2022/10/31 04:33:54;;;;;;;2.40;2.20;;;9.30;97.30;;;;;;5022224;28;20185;-87
2022/10/31 04:36:19;;;;;;;2.40;2.23;;;9.20;97.30;;;;;;5007267;28;20582;-88
2022/10/31 04:38:45;;;;;;;1.97;1.87;;;9.20;97.30;;;;;;5012005;28;20720;-87
2022/10/31 04:41:11;;;;;;;3.03;2.87;;;9.20;97.30;;;;;;5011753;28;20559;-88
2022/10/31 04:43:36;;;;;;;3.60;2.37;;;9.20;97.30;;;;;;5000602;28;20205;-88
2022/10/31 04:46:02;;;;;;;7.20;4.63;;;9.20;97.30;;;;;;5010282;28;20228;-88
2022/10/31 04:48:28;;;;;;;3.40;2.30;;;9.10;97.30;;;;;;5028462;28;20189;-87
2022/10/31 04:51:01;;;;;;;8.73;3.23;;;9.20;97.30;;;;;;5015690;28;20247;-88
2022/10/31 04:53:27;;;;;;;5.73;3.37;;;9.10;97.30;;;;;;5011725;28;20204;-87
2022/10/31 04:55:52;;;;;;;2.60;2.40;;;9.10;97.30;;;;;;5025952;28;20486;-87
2022/10/31 04:58:18;;;;;;;2.47;2.27;;;9.10;97.30;;;;;;5011739;28;20415;-87
2022/10/31 05:00:44;;;;;;;2.50;2.30;;;9.00;97.30;;;;;;5011987;28;20226;-89
2022/10/31 05:03:09;;;;;;;1.97;1.90;;;9.00;97.30;;;;;;5014475;28;20183;-88
2022/10/31 05:05:35;;;;;;;3.50;2.17;;;9.00;97.30;;;;;;5014887;28;20242;-87
2022/10/31 05:08:00;;;;;;;1.70;1.60;;;9.00;97.30;;;;;;5011262;28;20443;-88
2022/10/31 05:10:28;;;;;;;2.60;2.40;;;9.00;97.30;;;;;;5015309;28;20188;-88
2022/10/31 05:12:56;;;;;;;1.67;1.57;;;8.90;97.30;;;;;;5008781;28;20560;-87
2022/10/31 05:15:24;;;;;;;4.27;3.23;;;8.90;97.30;;;;;;5004344;28;21070;-87
2022/10/31 05:17:53;;;;;;;2.73;2.57;;;8.90;97.30;;;;;;5022525;28;20423;-89
2022/10/31 05:20:41;;;;;;;3.57;2.30;;;8.90;97.30;;;;;;5014007;28;20422;-87
2022/10/31 05:23:50;;;;;;;7.50;2.90;;;8.80;97.30;;;;;;5004810;28;20428;-87
2022/10/31 05:26:32;;;;;;;2.40;2.30;;;8.80;97.30;;;;;;5010335;23;20702;-85
2022/10/31 05:29:00;;;;;;;3.33;2.40;;;8.90;97.30;;;;;;5015180;28;20411;-85
2022/10/31 05:31:29;;;;;;;4.40;4.03;;;8.80;97.30;;;;;;5014198;28;20418;-87
2022/10/31 05:34:00;;;;;;;2.10;1.97;;;8.80;97.30;;;;;;5014968;28;20411;-87
2022/10/31 05:37:00;;;;;;;3.13;2.93;;;8.80;97.30;;;;;;5025832;28;20458;-86
2022/10/31 05:39:32;;;;;;;2.03;1.90;;;8.80;97.30;;;;;;5022878;28;20483;-87
2022/10/31 05:42:00;;;;;;;2.00;1.87;;;8.80;97.30;;;;;;5027384;28;20411;-86
2022/10/31 05:44:41;;;;;;;2.30;2.10;;;8.80;97.30;;;;;;5028464;28;20426;-86
2022/10/31 05:47:09;;;;;;;2.50;2.30;;;8.70;97.30;;;;;;5019524;28;20454;-86
2022/10/31 05:49:41;;;;;;;3.13;2.47;;;8.70;97.30;;;;;;5025478;28;20455;-87
2022/10/31 05:52:30;;;;;;;2.70;1.83;;;8.70;97.30;;;;;;5019471;28;20411;-85
2022/10/31 05:55:01;;;;;;;2.53;2.27;;;8.60;97.30;;;;;;4937008;29;21001;-87
2022/10/31 05:57:40;;;;;;;1.67;1.63;;;8.60;97.30;;;;;;4937444;29;20450;-87
2022/10/31 06:00:12;;;;;;;4.70;2.67;;;8.60;97.30;;;;;;4948824;29;20510;-86
2022/10/31 06:02:42;;;;;;;4.40;3.27;;;8.60;97.30;;;;;;4948580;28;20798;-87
2022/10/31 06:05:10;;;;;;;1.70;1.60;;;8.60;97.30;;;;;;4938969;28;20442;-87
2022/10/31 06:07:38;;;;;;;2.63;2.43;;;8.60;97.30;;;;;;5026447;28;20517;-88
2022/10/31 06:10:11;;;;;;;2.97;2.50;;;8.50;97.30;;;;;;5031581;28;20910;-87
2022/10/31 06:12:40;;;;;;;9.50;2.33;;;8.50;97.30;;;;;;5035106;28;20450;-84
2022/10/31 06:15:08;;;;;;;3.23;3.03;;;8.50;97.30;;;;;;5034624;28;20460;-86
2022/10/31 06:17:41;;;;;;;4.23;2.20;;;8.50;97.30;;;;;;5031428;28;20510;-86
2022/10/31 06:20:10;;;;;;;2.50;2.30;;;8.50;97.30;;;;;;5024298;28;20629;-87
2022/10/31 06:22:42;;;;;;;3.67;2.70;;;8.50;97.30;;;;;;5032795;28;20414;-87
2022/10/31 06:25:10;;;;;;;7.80;3.77;;;8.60;97.30;;;;;;5031998;28;20509;-87
2022/10/31 06:27:42;;;;;;;2.20;1.77;;;8.60;97.30;;;;;;5032500;28;20458;-87
2022/10/31 06:30:11;;;;;;;3.27;3.07;;;8.60;97.30;;;;;;5034263;28;20423;-89
2022/10/31 06:32:39;;;;;;;7.13;2.90;;;8.60;97.30;;;;;;5057662;28;20417;-90
2022/10/31 06:35:22;;;;;;;;;;;;;;;;;;;;;
2022/10/31 06:38:02;;;;;;;2.50;2.10;;;8.60;97.30;;;;;;5063753;28;20493;-87
2022/10/31 06:40:40;;;;;;;3.87;2.93;;;8.60;97.30;;;;;;5032768;28;20410;-86
2022/10/31 06:43:14;;;;;;;1.40;1.20;;;8.60;97.30;;;;;;5032252;28;20530;-87
2022/10/31 06:49:11;;;;;;;1.80;1.70;;;8.70;97.30;;;;;;5035548;28;20422;-88
2022/10/31 06:52:41;;;;;;;2.40;2.20;;;8.80;97.30;;;;;;5032392;28;20425;-88
2022/10/31 06:55:22;;;;;;;1.77;1.67;;;8.80;97.30;;;;;;5031954;28;20465;-87
2022/10/31 06:57:58;;;;;;;2.10;1.47;;;8.90;97.30;;;;;;5031051;28;20484;-88
2022/10/31 07:00:32;;;;;;;1.87;1.80;;;8.90;97.30;;;;;;5016537;28;20784;-86
2022/10/31 07:03:04;;;;;;;1.77;1.57;;;9.00;97.30;;;;;;5025381;28;20415;-86
2022/10/31 07:05:29;;;;;;;6.30;3.40;;;9.10;97.30;;;;;;5035703;28;20441;-88
2022/10/31 07:08:04;;;;;;;1.80;1.70;;;9.20;97.30;;;;;;5031485;28;20917;-87
2022/10/31 07:10:32;;;;;;;4.90;2.77;;;9.30;97.30;;;;;;5024399;28;20230;-89
2022/10/31 07:13:00;;;;;;;2.77;2.57;;;9.40;97.30;;;;;;5031338;23;20664;-83
2022/10/31 07:15:27;;;;;;;2.37;2.10;;;9.50;97.30;;;;;;5012025;28;20454;-83
2022/10/31 07:17:53;;;;;;;2.40;2.20;;;9.50;97.30;;;;;;5029209;28;20415;-83
2022/10/31 07:20:19;;;;;;;6.03;3.00;;;9.60;97.30;;;;;;5011585;28;20469;-83
2022/10/31 07:22:45;;;;;;;4.70;4.10;;;9.70;97.30;;;;;;5004946;28;20209;-83
2022/10/31 07:25:11;;;;;;;2.13;1.60;;;9.90;97.30;;;;;;5005605;28;20423;-83
2022/10/31 07:27:41;;;;;;;10.33;3.30;;;9.90;97.30;;;;;;5012288;28;20181;-83
2022/10/31 07:30:09;;;;;;;2.70;2.50;;;10.00;97.30;;;;;;5013875;28;20565;-83
2022/10/31 07:32:43;;;;;;;2.73;2.53;;;10.10;97.30;;;;;;5026286;28;20503;-83
2022/10/31 07:35:13;;;;;;;3.27;3.07;;;10.20;97.30;;;;;;5006376;28;20553;-83
2022/10/31 07:37:38;;;;;;;1.80;1.70;;;10.30;97.30;;;;;;5013582;28;20489;-83
2022/10/31 07:40:06;;;;;;;7.37;4.10;;;10.30;97.30;;;;;;5014357;28;20419;-83
2022/10/31 07:42:39;;;;;;;9.20;3.10;;;10.40;97.30;;;;;;4995463;28;20203;-83
2022/10/31 07:45:07;;;;;;;16.53;2.60;;;10.40;97.30;;;;;;5006483;28;20420;-83
2022/10/31 07:47:40;;;;;;;1.93;1.87;;;10.50;97.30;;;;;;5029064;28;20924;-82
2022/10/31 07:50:06;;;;;;;2.60;2.40;;;10.60;97.30;;;;;;5010766;28;20423;-82
2022/10/31 07:52:32;;;;;;;13.53;2.07;;;10.70;97.30;;;;;;5011877;28;20437;-83
2022/10/31 07:54:58;;;;;;;8.90;4.20;;;10.70;97.30;;;;;;5009829;28;20463;-82
2022/10/31 07:57:23;;;;;;;4.10;3.87;;;10.90;97.30;;;;;;5011403;28;20195;-83
2022/10/31 07:59:49;;;;;;;3.70;3.40;;;11.00;97.30;;;;;;5001102;28;20357;-82
2022/10/31 08:02:14;;;;;;;8.53;2.77;;;11.20;97.30;;;;;;5012126;28;20193;-83
2022/10/31 08:04:40;;;;;;;10.63;4.93;;;11.40;97.30;;;;;;5012334;28;20188;-86
2022/10/31 08:07:05;;;;;;;4.87;2.87;;;11.60;97.30;;;;;;5021610;28;20180;-82
2022/10/31 08:09:31;;;;;;;6.10;3.93;;;11.80;97.30;;;;;;5016363;28;20189;-83
2022/10/31 08:11:56;;;;;;;11.60;3.03;;;12.00;97.30;;;;;;5028762;28;20236;-83
2022/10/31 08:14:22;;;;;;;5.23;2.73;;;12.20;97.30;;;;;;5010375;28;20319;-82
2022/10/31 08:16:47;;;;;;;2.93;2.80;;;12.40;97.30;;;;;;5012280;28;20561;-82
2022/10/31 08:19:13;;;;;;;9.17;4.90;;;12.60;97.30;;;;;;5035906;28;20233;-82
2022/10/31 08:21:39;;;;;;;8.43;4.80;;;12.70;97.30;;;;;;5015628;28;20230;-82
2022/10/31 08:24:05;;;;;;;4.13;2.20;;;12.90;97.30;;;;;;5013214;28;20181;-82
2022/10/31 08:26:31;;;;;;;5.30;3.10;;;13.00;97.30;;;;;;5013543;28;20585;-82
2022/10/31 08:28:56;;;;;;;8.90;4.20;;;13.20;97.30;;;;;;5030778;28;20426;-82
2022/10/31 08:31:22;;;;;;;3.43;2.20;;;13.30;97.30;;;;;;5014537;28;20563;-82
2022/10/31 08:33:48;;;;;;;5.70;4.73;;;13.50;97.30;;;;;;5031985;28;20532;-82
2022/10/31 08:36:14;;;;;;;7.03;2.63;;;13.60;97.30;;;;;;5006474;28;20472;-81
2022/10/31 08:38:39;;;;;;;7.00;3.77;;;13.80;97.30;;;;;;5012591;28;20184;-83
2022/10/31 08:41:05;;;;;;;7.00;3.00;;;13.90;97.30;;;;;;5016133;28;20669;-83
2022/10/31 08:43:30;;;;;;;3.43;2.70;;;14.00;97.30;;;;;;5010063;28;20195;-82
2022/10/31 08:45:56;;;;;;;4.80;3.00;;;14.20;97.30;;;;;;5002789;28;20185;-82
2022/10/31 08:48:21;;;;;;;3.27;3.00;;;14.30;97.30;;;;;;5009855;28;20180;-83
2022/10/31 08:50:47;;;;;;;7.63;4.07;;;14.40;97.30;;;;;;5014364;28;20250;-83
2022/10/31 08:53:17;;;;;;;3.13;2.50;;;14.60;97.30;;;;;;5012785;28;20295;-83
2022/10/31 08:55:45;;;;;;;4.30;2.40;;;14.70;97.30;;;;;;5010691;28;20839;-82
2022/10/31 08:58:13;;;;;;;11.93;3.07;;;14.80;97.30;;;;;;5023869;28;20420;-82
2022/10/31 09:00:38;;;;;;;8.30;4.63;;;15.00;97.30;;;;;;5007650;28;20779;-82
2022/10/31 09:03:10;;;;;;;6.23;3.93;;;15.00;97.30;;;;;;5022737;28;20524;-83
2022/10/31 09:05:35;;;;;;;4.37;2.60;;;15.20;97.30;;;;;;5005236;28;20615;-82
2022/10/31 09:08:03;;;;;;;9.27;5.13;;;15.30;97.30;;;;;;5019578;28;20475;-84
2022/10/31 09:10:30;;;;;;;15.13;7.03;;;15.30;97.30;;;;;;5029749;28;20287;-85
2022/10/31 09:13:00;;;;;;;22.17;8.77;;;15.40;97.30;;;;;;5010628;28;20509;-84
2022/10/31 09:15:27;;;;;;;16.67;6.07;;;15.50;97.30;;;;;;5005959;28;20510;-82
2022/10/31 09:17:56;;;;;;;23.97;8.67;;;15.60;97.30;;;;;;5015288;28;20423;-83
2022/10/31 09:20:22;;;;;;;21.30;7.37;;;15.60;97.30;;;;;;5018331;28;20416;-82
2022/10/31 09:22:47;;;;;;;36.20;8.63;;;15.70;97.30;;;;;;5028224;28;20462;-83
2022/10/31 09:25:13;;;;;;;21.27;9.60;;;15.70;97.30;;;;;;5034309;28;20574;-83
2022/10/31 09:27:39;;;;;;;18.87;11.30;;;15.80;97.30;;;;;;5013950;28;20189;-83
2022/10/31 09:30:05;;;;;;;17.73;8.93;;;15.90;97.30;;;;;;5014526;28;20531;-84
2022/10/31 09:32:31;;;;;;;14.93;9.50;;;16.00;97.30;;;;;;5017391;28;20204;-83
2022/10/31 09:34:56;;;;;;;17.53;8.40;;;16.10;97.30;;;;;;5045376;28;20500;-83
2022/10/31 09:37:22;;;;;;;16.50;7.37;;;16.20;97.30;;;;;;5006118;28;20187;-83
2022/10/31 09:39:47;;;;;;;12.87;7.43;;;16.30;97.30;;;;;;5006587;28;20369;-83
2022/10/31 09:42:25;;;;;;;18.07;8.03;;;16.30;97.30;;;;;;5019870;28;20201;-83
2022/10/31 09:45:07;;;;;;;15.07;7.40;;;16.40;97.30;;;;;;5011245;28;20566;-82
2022/10/31 09:47:41;;;;;;;19.33;9.23;;;16.50;97.30;;;;;;5012198;28;20423;-83
2022/10/31 09:50:25;;;;;;;26.17;9.30;;;16.40;97.30;;;;;;5013908;28;20519;-82
2022/10/31 09:53:17;;;;;;;12.77;9.50;;;16.50;97.30;;;;;;5013260;28;20442;-83
2022/10/31 09:55:47;;;;;;;19.63;9.47;;;16.40;97.30;;;;;;5002665;28;20737;-83
2022/10/31 09:58:20;;;;;;;23.93;7.60;;;16.40;97.30;;;;;;5023363;28;20510;-84
2022/10/31 10:00:47;;;;;;;28.17;10.03;;;16.50;97.30;;;;;;5000955;28;20432;-84
2022/10/31 10:03:22;;;;;;;22.17;10.20;;;16.50;97.30;;;;;;5013631;28;21160;-84
2022/10/31 10:06:11;;;;;;;21.27;9.43;;;16.60;97.30;;;;;;5011247;28;20959;-82
2022/10/31 10:08:38;;;;;;;24.00;7.27;;;16.80;97.30;;;;;;5009310;28;20427;-83
2022/10/31 10:11:24;;;;;;;22.57;9.40;;;16.90;97.30;;;;;;5013128;28;20505;-82
2022/10/31 10:13:59;;;;;;;12.17;6.53;;;17.00;97.30;;;;;;5002736;28;20474;-83
2022/10/31 10:16:47;;;;;;;11.50;7.20;;;17.10;97.30;;;;;;5024439;28;20559;-83
2022/10/31 10:19:31;;;;;;;16.13;10.53;;;17.20;97.30;;;;;;5012492;28;20464;-83
2022/10/31 10:21:59;;;;;;;22.67;9.63;;;17.20;97.30;;;;;;5027430;28;20435;-83
2022/10/31 10:24:53;;;;;;;18.03;6.80;;;17.30;97.30;;;;;;5035625;28;20909;-83
2022/10/31 10:27:40;;;;;;;15.03;8.87;;;17.40;97.30;;;;;;5012958;28;20431;-84
2022/10/31 10:30:20;;;;;;;21.43;10.40;;;17.40;97.30;;;;;;5030667;28;20422;-83
2022/10/31 10:32:51;;;;;;;11.13;9.13;;;17.60;97.30;;;;;;5013337;28;20443;-81
2022/10/31 10:35:31;;;;;;;20.40;10.10;;;17.70;97.30;;;;;;5010302;28;20452;-82
2022/10/31 10:38:09;;;;;;;34.10;9.53;;;17.80;97.30;;;;;;5009232;28;20422;-83
2022/10/31 10:40:35;;;;;;;24.70;10.60;;;18.00;97.30;;;;;;5011473;28;20415;-83
2022/10/31 10:43:26;;;;;;;11.93;7.90;;;18.10;97.30;;;;;;5007471;28;20423;-82
2022/10/31 10:48:56;;;;;;;19.33;10.47;;;18.30;97.30;;;;;;5030365;28;20438;-82
2022/10/31 10:51:33;;;;;;;27.00;11.27;;;18.30;97.30;;;;;;5006019;28;20427;-83
2022/10/31 10:54:17;;;;;;;31.50;11.70;;;18.40;97.30;;;;;;5027436;28;20929;-83
2022/10/31 10:57:11;;;;;;;19.07;11.63;;;18.50;97.30;;;;;;5001411;28;20468;-83
2022/10/31 10:59:37;;;;;;;18.30;8.30;;;18.50;97.30;;;;;;5005671;28;20929;-83
2022/10/31 11:02:15;;;;;;;26.23;8.03;;;18.40;97.30;;;;;;4997346;28;20428;-83
2022/10/31 11:04:42;;;;;;;18.10;9.40;;;18.40;97.30;;;;;;5004651;28;20187;-83
2022/10/31 11:07:10;;;;;;;11.97;8.73;;;18.40;97.30;;;;;;5001375;28;20914;-83
2022/10/31 11:09:37;;;;;;;17.87;8.93;;;18.50;97.30;;;;;;5020888;28;20419;-83
2022/10/31 11:12:17;;;;;;;22.60;9.23;;;18.60;97.30;;;;;;5005561;28;20570;-84
2022/10/31 11:14:59;;;;;;;15.87;10.20;;;18.70;97.30;;;;;;5019164;28;20478;-82
2022/10/31 11:17:30;;;;;;;33.10;10.07;;;18.70;97.30;;;;;;5004583;28;20477;-82
2022/10/31 11:20:19;;;;;;;22.93;9.83;;;18.80;97.30;;;;;;5017373;28;20511;-83
2022/10/31 11:22:47;;;;;;;11.80;6.50;;;19.00;97.30;;;;;;5004146;28;20470;-83
2022/10/31 11:25:26;;;;;;;27.23;8.73;;;19.10;97.30;;;;;;5007526;28;20438;-83
2022/10/31 11:28:04;;;;;;;21.23;10.20;;;19.20;97.30;;;;;;5012069;28;20411;-83
2022/10/31 11:30:30;;;;;;;29.00;9.50;;;19.30;97.30;;;;;;4999419;28;20419;-83
2022/10/31 11:32:58;;;;;;;12.93;7.77;;;19.40;97.30;;;;;;5030196;28;20471;-83
2022/10/31 11:35:25;;;;;;;16.83;6.83;;;19.50;97.30;;;;;;5011544;28;20462;-82
2022/10/31 11:37:53;;;;;;;22.40;9.97;;;19.60;97.30;;;;;;5003996;28;20771;-83
2022/10/31 11:40:24;;;;;;;17.17;9.47;;;19.70;97.30;;;;;;5005779;28;20430;-81
2022/10/31 11:42:52;;;;;;;11.73;7.40;;;19.80;97.30;;;;;;4999939;28;20479;-83
2022/10/31 11:45:29;;;;;;;21.27;10.90;;;19.80;97.30;;;;;;5010413;28;20418;-83
2022/10/31 11:47:56;;;;;;;17.73;8.50;;;19.90;97.30;;;;;;5009099;28;20415;-82
2022/10/31 11:50:29;;;;;;;18.03;11.20;;;19.90;97.30;;;;;;5028703;28;20477;-83
2022/10/31 11:52:55;;;;;;;21.07;7.03;;;19.80;97.30;;;;;;5010927;28;20462;-83
2022/10/31 11:55:37;;;;;;;14.60;8.03;;;19.80;97.30;;;;;;5010096;28;20977;-83
2022/10/31 11:58:04;;;;;;;18.50;10.07;;;19.80;97.30;;;;;;5008655;28;20406;-82
2022/10/31 12:00:33;;;;;;;21.37;12.07;;;19.80;97.30;;;;;;5017818;28;20415;-81
2022/10/31 12:03:23;;;;;;;18.20;8.53;;;19.80;97.30;;;;;;5031030;28;20435;-78
2022/10/31 12:06:17;;;;;;;16.30;9.57;;;19.90;97.30;;;;;;5013379;28;20685;-81
2022/10/31 12:08:44;;;;;;;18.13;8.63;;;20.00;97.30;;;;;;5011960;28;21001;-81
2022/10/31 12:11:41;;;;;;;17.67;10.23;;;20.10;97.30;;;;;;5033202;28;20457;-81
2022/10/31 12:14:12;;;;;;;17.57;8.57;;;20.20;97.30;;;;;;5035467;28;20430;-84
2022/10/31 12:16:57;;;;;;;15.70;9.70;;;20.20;97.30;;;;;;5023680;28;20465;-83
2022/10/31 12:19:41;;;;;;;12.17;8.03;;;20.20;97.30;;;;;;5016186;28;20781;-82
2022/10/31 12:22:31;;;;;;;26.13;9.13;;;20.30;97.30;;;;;;5026406;28;20432;-82
2022/10/31 12:25:14;;;;;;;17.70;9.30;;;20.30;97.30;;;;;;5041362;28;20430;-84
2022/10/31 12:28:10;;;;;;;13.30;7.37;;;20.20;97.30;;;;;;5028928;28;20441;-83
2022/10/31 12:30:48;;;;;;;27.10;9.20;;;20.20;97.30;;;;;;5031935;28;20414;-83
2022/10/31 12:33:26;;;;;;;17.80;10.10;;;20.20;97.30;;;;;;5007265;28;20439;-83
2022/10/31 12:36:12;;;;;;;15.83;9.03;;;20.20;97.30;;;;;;5033800;28;20447;-84
2022/10/31 12:38:47;;;;;;;24.80;10.10;;;20.20;97.30;;;;;;5009627;28;20435;-82
2022/10/31 12:41:15;;;;;;;24.93;11.43;;;20.10;97.30;;;;;;5016695;28;20415;-82
2022/10/31 12:43:57;;;;;;;15.30;9.33;;;20.10;97.30;;;;;;5015471;28;20427;-82
2022/10/31 12:46:34;;;;;;;24.07;9.93;;;20.20;97.30;;;;;;5015231;28;20916;-84
2022/10/31 12:49:21;;;;;;;22.60;9.43;;;20.20;97.30;;;;;;5014995;28;20426;-84
2022/10/31 12:52:08;;;;;;;14.30;6.93;;;20.20;97.30;;;;;;5014184;28;20501;-83
2022/10/31 12:55:05;;;;;;;16.80;9.33;;;20.20;97.30;;;;;;5013804;28;20930;-83
2022/10/31 12:58:01;;;;;;;23.23;10.27;;;20.10;97.30;;;;;;5014451;28;20443;-82
2022/10/31 13:00:28;;;;;;;10.23;7.70;;;20.10;97.30;;;;;;5012132;28;20408;-83
2022/10/31 13:03:05;;;;;;;26.10;10.70;;;20.00;97.30;;;;;;5013838;28;20813;-84
2022/10/31 13:05:36;;;;;;;17.13;10.20;;;20.10;97.30;;;;;;5014498;28;20420;-83
2022/10/31 13:08:14;;;;;;;17.50;9.60;;;20.10;97.30;;;;;;5033314;28;20442;-83
2022/10/31 13:11:00;;;;;;;16.47;8.67;;;20.20;97.30;;;;;;5015673;28;20421;-84
2022/10/31 13:13:44;;;;;;;20.43;9.60;;;20.30;97.30;;;;;;5060776;23;21288;-84
2022/10/31 13:16:18;;;;;;;17.10;10.43;;;20.30;97.30;;;;;;5024841;28;20463;-84
2022/10/31 13:18:50;;;;;;;16.20;8.37;;;20.30;97.30;;;;;;5021274;28;20484;-84